sensor_id;sensor_type;location;lat;lon;timestamp;P1;durP1;ratioP1;P2;durP2;ratioP2
33152;SDS011;19509;43.862;26.176;2023-03-31T00:00:43;2.77;;;0.90;;
33152;SDS011;19509;43.862;26.176;2023-03-31T00:03:09;1.10;;;1.10;;
33152;SDS011;19509;43.862;26.176;2023-03-31T00:05:38;0.80;;;0.80;;
33152;SDS011;19509;43.862;26.176;2023-03-31T00:08:03;0.90;;;0.90;;
33152;SDS011;19509;43.862;26.176;2023-03-31T00:10:30;0.90;;;0.90;;
33152;SDS011;19509;43.862;26.176;2023-03-31T00:12:57;1.10;;;1.10;;
33152;SDS011;19509;43.862;26.176;2023-03-31T00:15:24;0.90;;;0.90;;
33152;SDS011;19509;43.862;26.176;2023-03-31T00:17:50;1.00;;;1.00;;
33152;SDS011;19509;43.862;26.176;2023-03-31T00:20:15;1.00;;;1.00;;
33152;SDS011;19509;43.862;26.176;2023-03-31T00:22:41;1.00;;;1.00;;
33152;SDS011;19509;43.862;26.176;2023-03-31T00:25:14;1.00;;;1.00;;
33152;SDS011;19509;43.862;26.176;2023-03-31T00:27:41;0.90;;;0.90;;
33152;SDS011;19509;43.862;26.176;2023-03-31T00:30:11;1.03;;;0.83;;
33152;SDS011;19509;43.862;26.176;2023-03-31T00:32:38;0.90;;;0.90;;
33152;SDS011;19509;43.862;26.176;2023-03-31T00:35:04;0.90;;;0.90;;
33152;SDS011;19509;43.862;26.176;2023-03-31T00:37:30;0.90;;;0.90;;
33152;SDS011;19509;43.862;26.176;2023-03-31T00:39:57;0.90;;;0.90;;
33152;SDS011;19509;43.862;26.176;2023-03-31T00:42:23;0.90;;;0.90;;
33152;SDS011;19509;43.862;26.176;2023-03-31T00:47:44;0.83;;;0.83;;
33152;SDS011;19509;43.862;26.176;2023-03-31T00:50:20;0.80;;;0.80;;
33152;SDS011;19509;43.862;26.176;2023-03-31T00:52:48;0.83;;;0.83;;
33152;SDS011;19509;43.862;26.176;2023-03-31T00:55:20;0.80;;;0.80;;
33152;SDS011;19509;43.862;26.176;2023-03-31T00:57:52;0.90;;;0.90;;
33152;SDS011;19509;43.862;26.176;2023-03-31T01:00:19;0.80;;;0.80;;
33152;SDS011;19509;43.862;26.176;2023-03-31T01:02:48;1.13;;;1.00;;
33152;SDS011;19509;43.862;26.176;2023-03-31T01:05:31;0.80;;;0.80;;
33152;SDS011;19509;43.862;26.176;2023-03-31T01:08:01;1.00;;;1.00;;
33152;SDS011;19509;43.862;26.176;2023-03-31T01:10:29;0.80;;;0.80;;
33152;SDS011;19509;43.862;26.176;2023-03-31T01:13:02;0.80;;;0.80;;
33152;SDS011;19509;43.862;26.176;2023-03-31T01:15:28;1.27;;;1.27;;
33152;SDS011;19509;43.862;26.176;2023-03-31T01:17:53;1.00;;;1.00;;
33152;SDS011;19509;43.862;26.176;2023-03-31T01:28:34;0.90;;;0.90;;
33152;SDS011;19509;43.862;26.176;2023-03-31T01:42:47;1.33;;;1.33;;
33152;SDS011;19509;43.862;26.176;2023-03-31T01:48:09;0.90;;;0.90;;
33152;SDS011;19509;43.862;26.176;2023-03-31T01:58:25;0.70;;;0.70;;
33152;SDS011;19509;43.862;26.176;2023-03-31T02:00:58;0.80;;;0.80;;
33152;SDS011;19509;43.862;26.176;2023-03-31T02:03:40;0.80;;;0.80;;
33152;SDS011;19509;43.862;26.176;2023-03-31T02:06:13;1.00;;;1.00;;
33152;SDS011;19509;43.862;26.176;2023-03-31T02:08:45;0.90;;;0.90;;
33152;SDS011;19509;43.862;26.176;2023-03-31T02:11:14;0.70;;;0.70;;
33152;SDS011;19509;43.862;26.176;2023-03-31T02:13:41;0.80;;;0.80;;
33152;SDS011;19509;43.862;26.176;2023-03-31T02:16:11;0.80;;;0.80;;
33152;SDS011;19509;43.862;26.176;2023-03-31T02:18:41;0.90;;;0.90;;
33152;SDS011;19509;43.862;26.176;2023-03-31T02:21:09;0.80;;;0.80;;
33152;SDS011;19509;43.862;26.176;2023-03-31T02:23:38;0.80;;;0.80;;
33152;SDS011;19509;43.862;26.176;2023-03-31T02:26:12;0.83;;;0.83;;
33152;SDS011;19509;43.862;26.176;2023-03-31T02:28:43;0.87;;;0.87;;
33152;SDS011;19509;43.862;26.176;2023-03-31T02:33:43;0.90;;;0.90;;
33152;SDS011;19509;43.862;26.176;2023-03-31T02:36:08;1.03;;;1.03;;
33152;SDS011;19509;43.862;26.176;2023-03-31T02:38:35;1.10;;;1.10;;
33152;SDS011;19509;43.862;26.176;2023-03-31T02:41:07;1.00;;;1.00;;
33152;SDS011;19509;43.862;26.176;2023-03-31T02:43:34;0.80;;;0.80;;
33152;SDS011;19509;43.862;26.176;2023-03-31T02:45:59;0.80;;;0.80;;
33152;SDS011;19509;43.862;26.176;2023-03-31T02:48:30;0.80;;;0.80;;
33152;SDS011;19509;43.862;26.176;2023-03-31T03:03:56;0.90;;;0.90;;
33152;SDS011;19509;43.862;26.176;2023-03-31T03:09:07;0.93;;;0.93;;
33152;SDS011;19509;43.862;26.176;2023-03-31T03:11:43;0.73;;;0.73;;
33152;SDS011;19509;43.862;26.176;2023-03-31T03:14:34;2.40;;;2.40;;
33152;SDS011;19509;43.862;26.176;2023-03-31T03:17:11;8.40;;;7.80;;
33152;SDS011;19509;43.862;26.176;2023-03-31T03:19:42;10.40;;;9.90;;
33152;SDS011;19509;43.862;26.176;2023-03-31T03:22:08;1.93;;;1.93;;
33152;SDS011;19509;43.862;26.176;2023-03-31T03:24:33;1.10;;;1.10;;
33152;SDS011;19509;43.862;26.176;2023-03-31T03:26:59;0.83;;;0.83;;
33152;SDS011;19509;43.862;26.176;2023-03-31T03:29:25;0.90;;;0.90;;
33152;SDS011;19509;43.862;26.176;2023-03-31T03:31:51;0.80;;;0.80;;
33152;SDS011;19509;43.862;26.176;2023-03-31T03:34:17;1.70;;;1.70;;
33152;SDS011;19509;43.862;26.176;2023-03-31T03:36:44;1.37;;;1.37;;
33152;SDS011;19509;43.862;26.176;2023-03-31T03:39:10;1.30;;;1.30;;
33152;SDS011;19509;43.862;26.176;2023-03-31T03:41:36;1.23;;;1.23;;
33152;SDS011;19509;43.862;26.176;2023-03-31T03:44:02;1.20;;;1.20;;
33152;SDS011;19509;43.862;26.176;2023-03-31T03:46:28;1.00;;;1.00;;
33152;SDS011;19509;43.862;26.176;2023-03-31T03:48:54;1.00;;;1.00;;
33152;SDS011;19509;43.862;26.176;2023-03-31T03:51:20;0.90;;;0.90;;
33152;SDS011;19509;43.862;26.176;2023-03-31T03:53:45;0.90;;;0.90;;
33152;SDS011;19509;43.862;26.176;2023-03-31T03:56:11;0.80;;;0.80;;
33152;SDS011;19509;43.862;26.176;2023-03-31T03:58:36;0.80;;;0.80;;
33152;SDS011;19509;43.862;26.176;2023-03-31T04:01:02;1.00;;;1.00;;
33152;SDS011;19509;43.862;26.176;2023-03-31T04:03:28;0.80;;;0.80;;
33152;SDS011;19509;43.862;26.176;2023-03-31T04:05:53;0.80;;;0.80;;
33152;SDS011;19509;43.862;26.176;2023-03-31T04:08:19;1.60;;;1.60;;
33152;SDS011;19509;43.862;26.176;2023-03-31T04:10:45;3.30;;;3.20;;
33152;SDS011;19509;43.862;26.176;2023-03-31T04:13:13;2.33;;;2.33;;
33152;SDS011;19509;43.862;26.176;2023-03-31T04:15:39;1.70;;;1.70;;
33152;SDS011;19509;43.862;26.176;2023-03-31T04:18:05;1.53;;;1.53;;
33152;SDS011;19509;43.862;26.176;2023-03-31T04:20:30;7.07;;;6.77;;
33152;SDS011;19509;43.862;26.176;2023-03-31T04:22:56;2.47;;;2.47;;
33152;SDS011;19509;43.862;26.176;2023-03-31T04:25:21;5.10;;;5.00;;
33152;SDS011;19509;43.862;26.176;2023-03-31T04:27:48;7.33;;;7.07;;
33152;SDS011;19509;43.862;26.176;2023-03-31T04:30:27;5.70;;;5.50;;
33152;SDS011;19509;43.862;26.176;2023-03-31T04:33:01;13.70;;;13.00;;
33152;SDS011;19509;43.862;26.176;2023-03-31T04:35:28;6.00;;;5.80;;
33152;SDS011;19509;43.862;26.176;2023-03-31T04:38:18;5.50;;;5.30;;
33152;SDS011;19509;43.862;26.176;2023-03-31T04:40:49;3.10;;;3.00;;
33152;SDS011;19509;43.862;26.176;2023-03-31T04:43:16;13.53;;;12.63;;
33152;SDS011;19509;43.862;26.176;2023-03-31T04:45:42;2.30;;;2.30;;
33152;SDS011;19509;43.862;26.176;2023-03-31T04:48:08;2.70;;;2.70;;
33152;SDS011;19509;43.862;26.176;2023-03-31T04:50:34;3.57;;;3.47;;
33152;SDS011;19509;43.862;26.176;2023-03-31T04:52:59;2.40;;;2.40;;
33152;SDS011;19509;43.862;26.176;2023-03-31T04:55:25;2.33;;;2.33;;
33152;SDS011;19509;43.862;26.176;2023-03-31T04:57:51;3.10;;;3.10;;
33152;SDS011;19509;43.862;26.176;2023-03-31T05:00:17;4.20;;;4.10;;
33152;SDS011;19509;43.862;26.176;2023-03-31T05:02:43;4.03;;;3.93;;
33152;SDS011;19509;43.862;26.176;2023-03-31T05:05:08;3.10;;;3.10;;
33152;SDS011;19509;43.862;26.176;2023-03-31T05:07:35;2.90;;;2.90;;
33152;SDS011;19509;43.862;26.176;2023-03-31T05:10:01;2.20;;;2.20;;
33152;SDS011;19509;43.862;26.176;2023-03-31T05:12:26;1.30;;;1.30;;
33152;SDS011;19509;43.862;26.176;2023-03-31T05:14:52;1.10;;;1.10;;
33152;SDS011;19509;43.862;26.176;2023-03-31T05:17:18;0.80;;;0.80;;
33152;SDS011;19509;43.862;26.176;2023-03-31T05:19:43;0.80;;;0.80;;
33152;SDS011;19509;43.862;26.176;2023-03-31T05:22:09;0.90;;;0.90;;
33152;SDS011;19509;43.862;26.176;2023-03-31T05:24:34;0.90;;;0.90;;
33152;SDS011;19509;43.862;26.176;2023-03-31T05:27:00;0.90;;;0.90;;
33152;SDS011;19509;43.862;26.176;2023-03-31T05:29:26;0.83;;;0.83;;
33152;SDS011;19509;43.862;26.176;2023-03-31T05:31:52;0.93;;;0.93;;
33152;SDS011;19509;43.862;26.176;2023-03-31T05:34:18;0.80;;;0.80;;
33152;SDS011;19509;43.862;26.176;2023-03-31T05:36:43;0.90;;;0.90;;
33152;SDS011;19509;43.862;26.176;2023-03-31T05:39:12;1.00;;;1.00;;
33152;SDS011;19509;43.862;26.176;2023-03-31T05:41:38;1.00;;;1.00;;
33152;SDS011;19509;43.862;26.176;2023-03-31T05:44:03;1.00;;;1.00;;
33152;SDS011;19509;43.862;26.176;2023-03-31T05:46:29;0.80;;;0.80;;
33152;SDS011;19509;43.862;26.176;2023-03-31T05:48:55;1.10;;;1.10;;
33152;SDS011;19509;43.862;26.176;2023-03-31T05:51:21;1.00;;;1.00;;
33152;SDS011;19509;43.862;26.176;2023-03-31T05:53:47;0.93;;;0.93;;
33152;SDS011;19509;43.862;26.176;2023-03-31T05:56:12;1.10;;;1.10;;
33152;SDS011;19509;43.862;26.176;2023-03-31T05:58:38;1.00;;;1.00;;
33152;SDS011;19509;43.862;26.176;2023-03-31T06:01:08;1.10;;;1.10;;
33152;SDS011;19509;43.862;26.176;2023-03-31T06:03:39;0.90;;;0.90;;
33152;SDS011;19509;43.862;26.176;2023-03-31T06:06:05;1.00;;;1.00;;
33152;SDS011;19509;43.862;26.176;2023-03-31T06:08:35;0.97;;;0.97;;
33152;SDS011;19509;43.862;26.176;2023-03-31T06:11:09;1.00;;;1.00;;
33152;SDS011;19509;43.862;26.176;2023-03-31T06:13:36;1.40;;;0.87;;
33152;SDS011;19509;43.862;26.176;2023-03-31T06:16:03;1.00;;;1.00;;
33152;SDS011;19509;43.862;26.176;2023-03-31T06:18:30;0.90;;;0.90;;
33152;SDS011;19509;43.862;26.176;2023-03-31T06:20:57;0.97;;;0.97;;
33152;SDS011;19509;43.862;26.176;2023-03-31T06:23:23;0.80;;;0.80;;
33152;SDS011;19509;43.862;26.176;2023-03-31T06:25:49;0.90;;;0.90;;
33152;SDS011;19509;43.862;26.176;2023-03-31T06:28:16;1.00;;;1.00;;
33152;SDS011;19509;43.862;26.176;2023-03-31T06:30:42;1.03;;;1.03;;
33152;SDS011;19509;43.862;26.176;2023-03-31T06:33:07;1.00;;;1.00;;
33152;SDS011;19509;43.862;26.176;2023-03-31T06:35:36;1.00;;;1.00;;
33152;SDS011;19509;43.862;26.176;2023-03-31T06:38:02;0.93;;;0.93;;
33152;SDS011;19509;43.862;26.176;2023-03-31T06:40:28;1.00;;;1.00;;
33152;SDS011;19509;43.862;26.176;2023-03-31T06:42:54;1.00;;;1.00;;
33152;SDS011;19509;43.862;26.176;2023-03-31T06:45:20;0.90;;;0.90;;
33152;SDS011;19509;43.862;26.176;2023-03-31T06:47:45;0.80;;;0.80;;
33152;SDS011;19509;43.862;26.176;2023-03-31T06:50:11;1.00;;;1.00;;
33152;SDS011;19509;43.862;26.176;2023-03-31T06:52:37;0.90;;;0.90;;
33152;SDS011;19509;43.862;26.176;2023-03-31T06:55:04;0.90;;;0.90;;
33152;SDS011;19509;43.862;26.176;2023-03-31T06:57:31;1.10;;;1.10;;
33152;SDS011;19509;43.862;26.176;2023-03-31T06:59:58;1.03;;;1.03;;
33152;SDS011;19509;43.862;26.176;2023-03-31T07:02:24;1.10;;;1.10;;
33152;SDS011;19509;43.862;26.176;2023-03-31T07:04:49;1.00;;;1.00;;
33152;SDS011;19509;43.862;26.176;2023-03-31T07:07:15;1.00;;;1.00;;
33152;SDS011;19509;43.862;26.176;2023-03-31T07:09:41;1.00;;;1.00;;
33152;SDS011;19509;43.862;26.176;2023-03-31T07:12:06;1.03;;;1.03;;
33152;SDS011;19509;43.862;26.176;2023-03-31T07:14:32;1.20;;;1.20;;
33152;SDS011;19509;43.862;26.176;2023-03-31T07:16:58;1.00;;;1.00;;
33152;SDS011;19509;43.862;26.176;2023-03-31T07:19:23;0.90;;;0.90;;
33152;SDS011;19509;43.862;26.176;2023-03-31T07:21:49;1.00;;;1.00;;
33152;SDS011;19509;43.862;26.176;2023-03-31T07:24:15;1.10;;;1.10;;
33152;SDS011;19509;43.862;26.176;2023-03-31T07:26:41;1.00;;;1.00;;
33152;SDS011;19509;43.862;26.176;2023-03-31T07:29:07;1.00;;;1.00;;
33152;SDS011;19509;43.862;26.176;2023-03-31T07:31:33;0.87;;;0.87;;
33152;SDS011;19509;43.862;26.176;2023-03-31T07:34:00;0.93;;;0.93;;
33152;SDS011;19509;43.862;26.176;2023-03-31T07:36:26;1.10;;;1.10;;
33152;SDS011;19509;43.862;26.176;2023-03-31T07:38:52;0.90;;;0.90;;
33152;SDS011;19509;43.862;26.176;2023-03-31T07:41:19;0.90;;;0.90;;
33152;SDS011;19509;43.862;26.176;2023-03-31T07:43:46;0.80;;;0.80;;
33152;SDS011;19509;43.862;26.176;2023-03-31T07:48:48;0.90;;;0.90;;
33152;SDS011;19509;43.862;26.176;2023-03-31T07:51:15;0.80;;;0.80;;
33152;SDS011;19509;43.862;26.176;2023-03-31T07:53:42;1.00;;;1.00;;
33152;SDS011;19509;43.862;26.176;2023-03-31T07:56:08;0.80;;;0.80;;
33152;SDS011;19509;43.862;26.176;2023-03-31T07:58:34;0.80;;;0.80;;
33152;SDS011;19509;43.862;26.176;2023-03-31T08:00:59;0.80;;;0.80;;
33152;SDS011;19509;43.862;26.176;2023-03-31T08:03:25;0.90;;;0.90;;
33152;SDS011;19509;43.862;26.176;2023-03-31T08:05:51;1.07;;;1.07;;
33152;SDS011;19509;43.862;26.176;2023-03-31T08:08:17;1.10;;;1.10;;
33152;SDS011;19509;43.862;26.176;2023-03-31T08:10:42;1.17;;;1.17;;
33152;SDS011;19509;43.862;26.176;2023-03-31T08:13:08;1.20;;;1.20;;
33152;SDS011;19509;43.862;26.176;2023-03-31T08:15:34;1.10;;;1.10;;
33152;SDS011;19509;43.862;26.176;2023-03-31T08:18:00;1.10;;;1.10;;
33152;SDS011;19509;43.862;26.176;2023-03-31T08:20:25;0.83;;;0.83;;
33152;SDS011;19509;43.862;26.176;2023-03-31T08:22:51;0.90;;;0.90;;
33152;SDS011;19509;43.862;26.176;2023-03-31T08:25:16;0.80;;;0.80;;
33152;SDS011;19509;43.862;26.176;2023-03-31T08:27:42;0.80;;;0.80;;
33152;SDS011;19509;43.862;26.176;2023-03-31T08:30:08;0.73;;;0.73;;
33152;SDS011;19509;43.862;26.176;2023-03-31T08:32:35;0.90;;;0.90;;
33152;SDS011;19509;43.862;26.176;2023-03-31T08:35:01;0.80;;;0.80;;
33152;SDS011;19509;43.862;26.176;2023-03-31T08:37:27;0.80;;;0.80;;
33152;SDS011;19509;43.862;26.176;2023-03-31T08:39:53;0.80;;;0.80;;
33152;SDS011;19509;43.862;26.176;2023-03-31T08:42:38;0.80;;;0.80;;
33152;SDS011;19509;43.862;26.176;2023-03-31T08:45:22;0.77;;;0.77;;
33152;SDS011;19509;43.862;26.176;2023-03-31T08:48:35;0.60;;;0.60;;
33152;SDS011;19509;43.862;26.176;2023-03-31T08:50:52;0.70;;;0.70;;
33152;SDS011;19509;43.862;26.176;2023-03-31T08:53:30;0.70;;;0.70;;
33152;SDS011;19509;43.862;26.176;2023-03-31T08:56:00;0.80;;;0.80;;
33152;SDS011;19509;43.862;26.176;2023-03-31T09:03:38;0.80;;;0.80;;
33152;SDS011;19509;43.862;26.176;2023-03-31T09:06:08;0.60;;;0.60;;
33152;SDS011;19509;43.862;26.176;2023-03-31T09:08:41;0.70;;;0.70;;
33152;SDS011;19509;43.862;26.176;2023-03-31T09:16:42;0.80;;;0.80;;
33152;SDS011;19509;43.862;26.176;2023-03-31T09:19:40;0.63;;;0.63;;
33152;SDS011;19509;43.862;26.176;2023-03-31T09:22:17;0.90;;;0.90;;
33152;SDS011;19509;43.862;26.176;2023-03-31T09:27:30;0.70;;;0.70;;
33152;SDS011;19509;43.862;26.176;2023-03-31T09:32:48;0.60;;;0.60;;
33152;SDS011;19509;43.862;26.176;2023-03-31T09:35:20;0.80;;;0.80;;
33152;SDS011;19509;43.862;26.176;2023-03-31T09:37:47;0.90;;;0.90;;
33152;SDS011;19509;43.862;26.176;2023-03-31T09:40:17;0.70;;;0.70;;
33152;SDS011;19509;43.862;26.176;2023-03-31T09:42:48;0.70;;;0.70;;
33152;SDS011;19509;43.862;26.176;2023-03-31T09:45:18;0.70;;;0.70;;
33152;SDS011;19509;43.862;26.176;2023-03-31T09:47:50;0.70;;;0.70;;
33152;SDS011;19509;43.862;26.176;2023-03-31T09:50:19;0.67;;;0.67;;
33152;SDS011;19509;43.862;26.176;2023-03-31T09:52:55;0.70;;;0.70;;
33152;SDS011;19509;43.862;26.176;2023-03-31T09:55:24;0.70;;;0.70;;
33152;SDS011;19509;43.862;26.176;2023-03-31T09:57:51;0.80;;;0.80;;
33152;SDS011;19509;43.862;26.176;2023-03-31T10:00:18;0.70;;;0.70;;
33152;SDS011;19509;43.862;26.176;2023-03-31T10:02:49;0.70;;;0.70;;
33152;SDS011;19509;43.862;26.176;2023-03-31T10:07:49;0.80;;;0.80;;
33152;SDS011;19509;43.862;26.176;2023-03-31T10:10:25;0.80;;;0.80;;
33152;SDS011;19509;43.862;26.176;2023-03-31T10:12:55;0.83;;;0.83;;
33152;SDS011;19509;43.862;26.176;2023-03-31T10:15:22;0.80;;;0.80;;
33152;SDS011;19509;43.862;26.176;2023-03-31T10:17:52;0.80;;;0.80;;
33152;SDS011;19509;43.862;26.176;2023-03-31T10:20:30;0.83;;;0.83;;
33152;SDS011;19509;43.862;26.176;2023-03-31T10:23:04;0.70;;;0.70;;
33152;SDS011;19509;43.862;26.176;2023-03-31T10:25:39;0.73;;;0.73;;
33152;SDS011;19509;43.862;26.176;2023-03-31T10:28:05;0.80;;;0.80;;
33152;SDS011;19509;43.862;26.176;2023-03-31T10:30:34;0.63;;;0.63;;
33152;SDS011;19509;43.862;26.176;2023-03-31T10:33:05;0.90;;;0.90;;
33152;SDS011;19509;43.862;26.176;2023-03-31T10:35:38;0.80;;;0.80;;
33152;SDS011;19509;43.862;26.176;2023-03-31T10:38:05;0.90;;;0.90;;
33152;SDS011;19509;43.862;26.176;2023-03-31T10:40:35;0.80;;;0.80;;
33152;SDS011;19509;43.862;26.176;2023-03-31T10:45:57;0.73;;;0.73;;
33152;SDS011;19509;43.862;26.176;2023-03-31T10:50:52;0.80;;;0.80;;
33152;SDS011;19509;43.862;26.176;2023-03-31T10:53:20;0.77;;;0.77;;
33152;SDS011;19509;43.862;26.176;2023-03-31T11:03:53;0.73;;;0.73;;
33152;SDS011;19509;43.862;26.176;2023-03-31T11:06:44;0.80;;;0.80;;
33152;SDS011;19509;43.862;26.176;2023-03-31T11:17:31;0.70;;;0.70;;
33152;SDS011;19509;43.862;26.176;2023-03-31T11:20:11;0.80;;;0.80;;
33152;SDS011;19509;43.862;26.176;2023-03-31T11:25:22;0.80;;;0.80;;
33152;SDS011;19509;43.862;26.176;2023-03-31T11:31:05;0.80;;;0.80;;
33152;SDS011;19509;43.862;26.176;2023-03-31T11:33:56;0.80;;;0.80;;
33152;SDS011;19509;43.862;26.176;2023-03-31T11:36:59;0.70;;;0.70;;
33152;SDS011;19509;43.862;26.176;2023-03-31T11:42:05;0.70;;;0.70;;
33152;SDS011;19509;43.862;26.176;2023-03-31T11:44:43;0.70;;;0.70;;
33152;SDS011;19509;43.862;26.176;2023-03-31T11:47:14;0.80;;;0.80;;
33152;SDS011;19509;43.862;26.176;2023-03-31T11:52:29;0.70;;;0.70;;
33152;SDS011;19509;43.862;26.176;2023-03-31T11:57:40;0.70;;;0.70;;
33152;SDS011;19509;43.862;26.176;2023-03-31T12:00:15;0.80;;;0.80;;
33152;SDS011;19509;43.862;26.176;2023-03-31T12:05:18;0.60;;;0.60;;
33152;SDS011;19509;43.862;26.176;2023-03-31T12:10:32;0.60;;;0.60;;
33152;SDS011;19509;43.862;26.176;2023-03-31T12:18:48;0.60;;;0.60;;
33152;SDS011;19509;43.862;26.176;2023-03-31T12:21:28;0.60;;;0.60;;
33152;SDS011;19509;43.862;26.176;2023-03-31T12:23:58;0.60;;;0.60;;
33152;SDS011;19509;43.862;26.176;2023-03-31T12:32:20;0.60;;;0.60;;
33152;SDS011;19509;43.862;26.176;2023-03-31T12:34:59;0.70;;;0.70;;
33152;SDS011;19509;43.862;26.176;2023-03-31T12:45:46;0.60;;;0.60;;
33152;SDS011;19509;43.862;26.176;2023-03-31T12:50:52;0.60;;;0.60;;
33152;SDS011;19509;43.862;26.176;2023-03-31T12:56:14;0.50;;;0.50;;
33152;SDS011;19509;43.862;26.176;2023-03-31T12:58:41;0.60;;;0.60;;
33152;SDS011;19509;43.862;26.176;2023-03-31T13:01:20;0.60;;;0.60;;
33152;SDS011;19509;43.862;26.176;2023-03-31T13:16:31;0.70;;;0.70;;
33152;SDS011;19509;43.862;26.176;2023-03-31T13:18:58;0.70;;;0.70;;
33152;SDS011;19509;43.862;26.176;2023-03-31T13:21:24;0.70;;;0.70;;
33152;SDS011;19509;43.862;26.176;2023-03-31T13:23:50;0.60;;;0.60;;
33152;SDS011;19509;43.862;26.176;2023-03-31T13:34:42;0.53;;;0.53;;
33152;SDS011;19509;43.862;26.176;2023-03-31T13:40:16;0.60;;;0.60;;
33152;SDS011;19509;43.862;26.176;2023-03-31T13:51:45;0.70;;;0.70;;
33152;SDS011;19509;43.862;26.176;2023-03-31T14:05:52;0.70;;;0.70;;
33152;SDS011;19509;43.862;26.176;2023-03-31T14:07:58;0.70;;;0.70;;
33152;SDS011;19509;43.862;26.176;2023-03-31T14:10:31;0.70;;;0.70;;
33152;SDS011;19509;43.862;26.176;2023-03-31T14:13:05;0.67;;;0.67;;
33152;SDS011;19509;43.862;26.176;2023-03-31T14:15:32;0.60;;;0.60;;
33152;SDS011;19509;43.862;26.176;2023-03-31T14:18:00;0.70;;;0.70;;
33152;SDS011;19509;43.862;26.176;2023-03-31T14:23:15;0.63;;;0.63;;
33152;SDS011;19509;43.862;26.176;2023-03-31T14:26:00;0.77;;;0.77;;
33152;SDS011;19509;43.862;26.176;2023-03-31T14:28:46;0.63;;;0.63;;
33152;SDS011;19509;43.862;26.176;2023-03-31T14:31:29;0.60;;;0.60;;
33152;SDS011;19509;43.862;26.176;2023-03-31T14:39:22;0.70;;;0.67;;
33152;SDS011;19509;43.862;26.176;2023-03-31T14:41:52;0.70;;;0.70;;
33152;SDS011;19509;43.862;26.176;2023-03-31T14:44:19;0.63;;;0.63;;
33152;SDS011;19509;43.862;26.176;2023-03-31T14:46:46;0.63;;;0.63;;
33152;SDS011;19509;43.862;26.176;2023-03-31T14:49:19;1.23;;;0.70;;
33152;SDS011;19509;43.862;26.176;2023-03-31T14:51:46;0.67;;;0.67;;
33152;SDS011;19509;43.862;26.176;2023-03-31T14:54:16;1.23;;;0.73;;
33152;SDS011;19509;43.862;26.176;2023-03-31T14:56:42;0.70;;;0.70;;
33152;SDS011;19509;43.862;26.176;2023-03-31T14:59:12;0.70;;;0.70;;
33152;SDS011;19509;43.862;26.176;2023-03-31T15:01:51;0.70;;;0.70;;
33152;SDS011;19509;43.862;26.176;2023-03-31T15:04:18;0.83;;;0.70;;
33152;SDS011;19509;43.862;26.176;2023-03-31T15:06:48;1.23;;;0.60;;
33152;SDS011;19509;43.862;26.176;2023-03-31T15:09:19;0.70;;;0.70;;
33152;SDS011;19509;43.862;26.176;2023-03-31T15:11:51;0.80;;;0.80;;
33152;SDS011;19509;43.862;26.176;2023-03-31T15:14:21;0.70;;;0.70;;
33152;SDS011;19509;43.862;26.176;2023-03-31T15:16:48;0.60;;;0.60;;
33152;SDS011;19509;43.862;26.176;2023-03-31T15:19:33;0.83;;;0.73;;
33152;SDS011;19509;43.862;26.176;2023-03-31T15:22:10;0.60;;;0.60;;
33152;SDS011;19509;43.862;26.176;2023-03-31T15:24:38;0.80;;;0.70;;
33152;SDS011;19509;43.862;26.176;2023-03-31T15:27:08;0.60;;;0.60;;
33152;SDS011;19509;43.862;26.176;2023-03-31T15:29:48;0.60;;;0.60;;
33152;SDS011;19509;43.862;26.176;2023-03-31T15:32:20;0.60;;;0.60;;
33152;SDS011;19509;43.862;26.176;2023-03-31T15:34:50;1.40;;;0.80;;
33152;SDS011;19509;43.862;26.176;2023-03-31T15:37:18;0.70;;;0.70;;
33152;SDS011;19509;43.862;26.176;2023-03-31T15:39:46;0.70;;;0.70;;
33152;SDS011;19509;43.862;26.176;2023-03-31T15:42:13;0.60;;;0.60;;
33152;SDS011;19509;43.862;26.176;2023-03-31T15:44:46;0.60;;;0.60;;
33152;SDS011;19509;43.862;26.176;2023-03-31T15:47:21;0.80;;;0.80;;
33152;SDS011;19509;43.862;26.176;2023-03-31T15:50:01;0.80;;;0.80;;
33152;SDS011;19509;43.862;26.176;2023-03-31T15:52:37;0.67;;;0.67;;
33152;SDS011;19509;43.862;26.176;2023-03-31T15:57:48;0.70;;;0.70;;
33152;SDS011;19509;43.862;26.176;2023-03-31T16:03:03;1.23;;;0.80;;
33152;SDS011;19509;43.862;26.176;2023-03-31T16:05:40;1.13;;;0.80;;
33152;SDS011;19509;43.862;26.176;2023-03-31T16:08:14;0.60;;;0.60;;
33152;SDS011;19509;43.862;26.176;2023-03-31T16:10:45;0.70;;;0.70;;
33152;SDS011;19509;43.862;26.176;2023-03-31T16:13:16;0.60;;;0.60;;
33152;SDS011;19509;43.862;26.176;2023-03-31T16:15:48;0.80;;;0.80;;
33152;SDS011;19509;43.862;26.176;2023-03-31T16:18:27;0.77;;;0.77;;
33152;SDS011;19509;43.862;26.176;2023-03-31T16:20:57;0.83;;;0.83;;
33152;SDS011;19509;43.862;26.176;2023-03-31T16:23:27;0.60;;;0.60;;
33152;SDS011;19509;43.862;26.176;2023-03-31T16:25:56;0.70;;;0.70;;
33152;SDS011;19509;43.862;26.176;2023-03-31T16:28:27;0.73;;;0.73;;
33152;SDS011;19509;43.862;26.176;2023-03-31T16:30:55;0.70;;;0.70;;
33152;SDS011;19509;43.862;26.176;2023-03-31T16:33:22;1.23;;;1.10;;
33152;SDS011;19509;43.862;26.176;2023-03-31T16:35:52;0.70;;;0.70;;
33152;SDS011;19509;43.862;26.176;2023-03-31T16:38:24;2.43;;;0.80;;
33152;SDS011;19509;43.862;26.176;2023-03-31T16:40:51;1.53;;;0.90;;
33152;SDS011;19509;43.862;26.176;2023-03-31T16:43:20;0.80;;;0.80;;
33152;SDS011;19509;43.862;26.176;2023-03-31T16:45:51;0.50;;;0.50;;
33152;SDS011;19509;43.862;26.176;2023-03-31T16:48:19;0.80;;;0.80;;
33152;SDS011;19509;43.862;26.176;2023-03-31T16:50:50;0.80;;;0.80;;
33152;SDS011;19509;43.862;26.176;2023-03-31T16:53:19;0.73;;;0.73;;
33152;SDS011;19509;43.862;26.176;2023-03-31T16:55:46;0.70;;;0.70;;
33152;SDS011;19509;43.862;26.176;2023-03-31T16:58:12;0.70;;;0.70;;
33152;SDS011;19509;43.862;26.176;2023-03-31T17:00:39;0.80;;;0.80;;
33152;SDS011;19509;43.862;26.176;2023-03-31T17:03:05;0.70;;;0.70;;
33152;SDS011;19509;43.862;26.176;2023-03-31T17:05:36;0.83;;;0.83;;
33152;SDS011;19509;43.862;26.176;2023-03-31T17:08:09;0.90;;;0.90;;
33152;SDS011;19509;43.862;26.176;2023-03-31T17:10:36;0.83;;;0.83;;
33152;SDS011;19509;43.862;26.176;2023-03-31T17:13:02;0.70;;;0.70;;
33152;SDS011;19509;43.862;26.176;2023-03-31T17:15:28;0.80;;;0.80;;
33152;SDS011;19509;43.862;26.176;2023-03-31T17:17:55;0.70;;;0.70;;
33152;SDS011;19509;43.862;26.176;2023-03-31T17:20:22;0.80;;;0.80;;
33152;SDS011;19509;43.862;26.176;2023-03-31T17:22:49;0.70;;;0.70;;
33152;SDS011;19509;43.862;26.176;2023-03-31T17:25:15;0.67;;;0.67;;
33152;SDS011;19509;43.862;26.176;2023-03-31T17:27:42;0.63;;;0.63;;
33152;SDS011;19509;43.862;26.176;2023-03-31T17:30:08;0.73;;;0.73;;
33152;SDS011;19509;43.862;26.176;2023-03-31T17:32:34;0.80;;;0.80;;
33152;SDS011;19509;43.862;26.176;2023-03-31T17:35:00;0.80;;;0.80;;
33152;SDS011;19509;43.862;26.176;2023-03-31T17:37:27;0.80;;;0.80;;
33152;SDS011;19509;43.862;26.176;2023-03-31T17:39:53;0.70;;;0.70;;
33152;SDS011;19509;43.862;26.176;2023-03-31T17:42:19;0.73;;;0.73;;
33152;SDS011;19509;43.862;26.176;2023-03-31T17:44:45;0.70;;;0.70;;
33152;SDS011;19509;43.862;26.176;2023-03-31T17:47:13;0.60;;;0.60;;
33152;SDS011;19509;43.862;26.176;2023-03-31T17:49:40;0.90;;;0.90;;
33152;SDS011;19509;43.862;26.176;2023-03-31T17:52:06;0.60;;;0.60;;
33152;SDS011;19509;43.862;26.176;2023-03-31T17:54:31;0.70;;;0.70;;
33152;SDS011;19509;43.862;26.176;2023-03-31T17:56:57;1.00;;;1.00;;
33152;SDS011;19509;43.862;26.176;2023-03-31T17:59:23;1.90;;;1.90;;
33152;SDS011;19509;43.862;26.176;2023-03-31T18:01:49;2.53;;;2.53;;